createdAt,value
2023-02-16T00:02:27.360Z,38.00
2023-02-16T00:08:39.131Z,38.00
2023-02-16T00:14:48.716Z,38.70
2023-02-16T00:20:59.464Z,38.10
2023-02-16T00:27:14.487Z,37.90
2023-02-16T00:33:28.766Z,37.80
2023-02-16T00:39:37.921Z,37.90
2023-02-16T00:45:47.917Z,37.80
2023-02-16T00:52:02.175Z,38.70
2023-02-16T00:58:21.312Z,38.30
2023-02-16T01:04:35.043Z,38.30
2023-02-16T01:11:05.894Z,38.60
2023-02-16T01:17:20.801Z,39.00
2023-02-16T01:23:31.986Z,39.30
2023-02-16T01:29:44.017Z,38.90
2023-02-16T01:35:56.452Z,39.00
2023-02-16T01:42:30.375Z,38.80
2023-02-16T01:48:45.347Z,38.70
2023-02-16T01:55:00.398Z,38.80
2023-02-16T02:08:07.230Z,38.60
2023-02-16T02:14:19.106Z,38.60
2023-02-16T02:20:55.268Z,38.50
2023-02-16T02:27:10.881Z,39.10
2023-02-16T02:33:34.475Z,39.00
2023-02-16T02:39:47.984Z,39.50
2023-02-16T02:46:00.617Z,40.60
2023-02-16T02:52:17.390Z,40.90
2023-02-16T02:58:44.268Z,41.10
2023-02-16T03:04:59.411Z,40.80
2023-02-16T03:11:31.724Z,40.60
2023-02-16T03:17:58.184Z,40.10
2023-02-16T03:24:32.885Z,40.10
2023-02-16T03:30:46.195Z,39.90
2023-02-16T03:36:59.958Z,39.70
2023-02-16T03:43:10.583Z,39.60
2023-02-16T03:49:23.162Z,39.60
2023-02-16T03:55:32.007Z,39.50
2023-02-16T04:01:42.112Z,39.30
2023-02-16T04:07:52.812Z,39.10
2023-02-16T04:14:07.951Z,39.50
2023-02-16T04:20:21.170Z,39.60
2023-02-16T04:26:31.044Z,39.50
2023-02-16T04:32:40.919Z,39.40
2023-02-16T04:38:54.873Z,39.40
2023-02-16T04:45:06.993Z,39.20
2023-02-16T04:51:15.161Z,39.30
2023-02-16T04:57:26.380Z,39.20
2023-02-16T05:03:38.702Z,39.10
2023-02-16T05:09:48.484Z,39.20
2023-02-16T05:15:59.504Z,39.20
2023-02-16T05:22:11.666Z,39.10
2023-02-16T05:28:20.694Z,39.10
2023-02-16T05:34:33.280Z,39.20
2023-02-16T05:40:43.427Z,39.30
2023-02-16T05:46:51.592Z,39.60
2023-02-16T05:53:00.653Z,39.60
2023-02-16T05:59:10.809Z,40.00
2023-02-16T06:05:19.299Z,40.10
2023-02-16T06:11:40.890Z,40.40
2023-02-16T06:17:50.043Z,40.30
2023-02-16T06:23:59.799Z,40.20
2023-02-16T06:30:14.931Z,40.10
2023-02-16T06:36:25.824Z,39.90
2023-02-16T06:42:35.200Z,39.90
2023-02-16T06:48:47.755Z,39.70
2023-02-16T06:54:57.746Z,39.60
2023-02-16T07:01:09.236Z,39.50
2023-02-16T07:07:37.469Z,39.60
2023-02-16T07:13:46.705Z,39.40
2023-02-16T07:20:00.002Z,39.20
2023-02-16T07:26:12.130Z,39.20
2023-02-16T07:32:23.151Z,39.10
2023-02-16T07:38:35.074Z,39.00
2023-02-16T07:44:46.866Z,39.00
2023-02-16T07:50:56.115Z,39.00
2023-02-16T07:57:06.907Z,39.60
2023-02-16T08:03:19.059Z,39.00
2023-02-16T08:09:28.351Z,39.00
2023-02-16T08:15:39.118Z,38.90
2023-02-16T08:21:50.049Z,38.90
2023-02-16T08:27:58.192Z,38.80
2023-02-16T08:34:10.200Z,38.80
2023-02-16T08:40:19.837Z,38.80
2023-02-16T08:46:30.741Z,38.90
2023-02-16T08:52:39.858Z,38.90
2023-02-16T08:58:48.865Z,38.80
2023-02-16T09:04:58.737Z,38.70
2023-02-16T09:11:10.450Z,38.60
2023-02-16T09:17:18.497Z,38.70
2023-02-16T09:23:30.297Z,38.70
2023-02-16T09:29:44.433Z,39.10
2023-02-16T09:35:54.417Z,38.70
2023-02-16T09:42:10.386Z,38.70
2023-02-16T09:48:25.400Z,38.80
2023-02-16T09:54:42.622Z,38.80
2023-02-16T10:00:54.375Z,38.80
2023-02-16T10:07:09.244Z,38.90
2023-02-16T10:13:21.233Z,38.70
2023-02-16T10:19:33.376Z,38.90
2023-02-16T10:25:48.458Z,38.80
2023-02-16T10:32:03.966Z,38.80
2023-02-16T10:38:14.990Z,38.80
2023-02-16T10:44:24.792Z,38.80
2023-02-16T10:50:38.401Z,38.80
2023-02-16T10:56:59.710Z,38.80
2023-02-16T11:03:11.490Z,38.80
2023-02-16T11:09:19.592Z,38.50
2023-02-16T11:15:31.116Z,38.50
2023-02-16T11:21:49.033Z,38.70
2023-02-16T11:28:00.162Z,38.60
2023-02-16T11:34:09.749Z,38.80
2023-02-16T11:40:29.631Z,38.80
2023-02-16T11:46:43.233Z,38.80
2023-02-16T11:52:53.163Z,38.60
2023-02-16T12:05:41.171Z,38.80
2023-02-16T12:11:56.179Z,38.80
2023-02-16T12:18:19.744Z,38.80
2023-02-16T12:24:35.242Z,38.80
2023-02-16T12:30:53.420Z,38.90
2023-02-16T12:37:08.280Z,39.00
2023-02-16T12:43:24.789Z,39.20
2023-02-16T12:49:42.118Z,39.30
2023-02-16T12:55:52.632Z,39.40
2023-02-16T13:02:03.343Z,39.60
2023-02-16T13:08:15.868Z,39.40
2023-02-16T13:14:25.794Z,39.20
2023-02-16T13:20:40.592Z,39.30
2023-02-16T13:27:12.575Z,39.50
2023-02-16T13:33:33.523Z,39.60
2023-02-16T13:46:24.322Z,39.40
2023-02-16T13:52:35.881Z,39.90
2023-02-16T13:58:46.130Z,40.00
2023-02-16T14:05:11.054Z,39.70
2023-02-16T14:11:23.619Z,40.40
2023-02-16T14:17:40.626Z,41.40
2023-02-16T14:23:54.443Z,41.10
2023-02-16T14:30:04.338Z,40.70
2023-02-16T14:36:16.482Z,41.00
2023-02-16T14:42:31.438Z,40.00
2023-02-16T14:48:55.624Z,40.50
2023-02-16T14:55:52.474Z,40.40
2023-02-16T15:02:04.302Z,40.50
2023-02-16T15:08:24.476Z,40.20
2023-02-16T15:14:33.736Z,39.70
2023-02-16T15:20:43.636Z,40.00
2023-02-16T15:27:02.746Z,40.40
2023-02-16T15:33:14.673Z,40.60
2023-02-16T15:39:43.597Z,40.40
2023-02-16T15:45:40.639Z,39.80
2023-02-16T15:51:52.203Z,40.10
2023-02-16T15:58:03.095Z,40.40
2023-02-16T16:04:18.691Z,40.60
2023-02-16T16:10:32.531Z,40.70
2023-02-16T16:16:40.966Z,39.80
2023-02-16T16:22:51.736Z,39.80
2023-02-16T16:29:00.379Z,40.20
2023-02-16T16:35:24.057Z,40.50
2023-02-16T16:41:31.932Z,40.50
2023-02-16T16:47:44.622Z,40.50
2023-02-16T16:54:01.760Z,39.70
2023-02-16T17:00:15.660Z,39.70
2023-02-16T17:06:26.845Z,40.90
2023-02-16T17:12:34.345Z,40.50
2023-02-16T17:18:47.212Z,41.30
2023-02-16T17:24:58.006Z,41.40
2023-02-16T17:31:11.828Z,40.10
2023-02-16T17:37:20.264Z,41.40
2023-02-16T17:43:28.271Z,41.40
2023-02-16T17:49:36.280Z,42.70
2023-02-16T17:55:48.065Z,44.10
2023-02-16T18:01:59.684Z,43.90
2023-02-16T18:08:10.738Z,43.40
2023-02-16T18:14:20.581Z,42.60
2023-02-16T18:20:31.203Z,42.50
2023-02-16T18:26:40.141Z,42.20
2023-02-16T18:32:48.788Z,41.50
2023-02-16T18:38:57.276Z,41.10
2023-02-16T18:45:08.680Z,41.60
2023-02-16T18:51:18.124Z,42.40
2023-02-16T18:57:26.714Z,41.40
2023-02-16T19:03:37.796Z,41.40
2023-02-16T19:09:51.177Z,41.40
2023-02-16T19:16:01.426Z,41.10
2023-02-16T19:22:12.669Z,41.10
2023-02-16T19:28:20.883Z,40.60
2023-02-16T19:34:28.307Z,40.30
2023-02-16T19:40:40.841Z,41.00
2023-02-16T19:46:50.595Z,41.10
2023-02-16T19:52:59.975Z,41.20
2023-02-16T19:59:14.046Z,41.20
2023-02-16T20:05:25.503Z,41.20
2023-02-16T20:11:33.783Z,41.00
2023-02-16T20:17:44.249Z,41.00
2023-02-16T20:23:52.087Z,39.90
2023-02-16T20:30:01.213Z,39.90
2023-02-16T20:36:13.048Z,40.20
2023-02-16T20:42:22.441Z,40.40
2023-02-16T20:48:30.748Z,40.30
2023-02-16T20:54:40.098Z,39.40
2023-02-16T21:00:51.209Z,39.60
2023-02-16T21:07:03.376Z,39.80
2023-02-16T21:13:15.417Z,40.00
2023-02-16T21:19:24.349Z,39.90
2023-02-16T21:25:36.112Z,39.60
2023-02-16T21:31:46.363Z,39.30
2023-02-16T21:37:55.586Z,39.50
2023-02-16T21:44:06.068Z,39.40
2023-02-16T21:50:16.002Z,39.50
2023-02-16T21:56:35.627Z,39.40
2023-02-16T22:02:47.095Z,39.40
2023-02-16T22:08:55.520Z,39.80
2023-02-16T22:15:09.239Z,39.60
2023-02-16T22:21:20.471Z,39.00
2023-02-16T22:27:33.386Z,39.20
2023-02-16T22:33:43.954Z,39.60
2023-02-16T22:39:54.627Z,39.60
2023-02-16T22:46:07.271Z,39.70
2023-02-16T22:52:18.367Z,39.90
2023-02-16T22:58:28.490Z,39.90
2023-02-16T23:04:42.298Z,39.10
2023-02-16T23:11:03.474Z,40.00
2023-02-16T23:17:14.547Z,40.60
2023-02-16T23:23:24.778Z,41.20
2023-02-16T23:29:34.500Z,42.40
2023-02-16T23:35:43.185Z,41.30
2023-02-16T23:41:54.305Z,40.80
2023-02-16T23:48:02.170Z,40.50
2023-02-16T23:54:12.962Z,40.90
